createdAt,value
2023-05-15T00:02:24.048Z,11.02
2023-05-15T00:04:51.295Z,10.93
2023-05-15T00:07:18.336Z,10.90
2023-05-15T00:09:45.285Z,10.84
2023-05-15T00:12:12.263Z,10.83
2023-05-15T00:14:39.180Z,10.82
2023-05-15T00:17:06.465Z,10.79
2023-05-15T00:19:33.443Z,10.69
2023-05-15T00:22:00.339Z,10.66
2023-05-15T00:24:27.235Z,10.60
2023-05-15T00:26:54.204Z,10.57
2023-05-15T00:29:21.140Z,10.53
2023-05-15T00:31:48.158Z,10.46
2023-05-15T00:34:15.169Z,10.43
2023-05-15T00:36:42.084Z,10.45
2023-05-15T00:39:09.049Z,10.40
2023-05-15T00:41:37.672Z,10.40
2023-05-15T00:44:07.181Z,10.31
2023-05-15T00:46:36.241Z,10.32
2023-05-15T00:49:13.770Z,10.31
2023-05-15T00:51:43.953Z,10.25
2023-05-15T00:54:11.723Z,10.22
2023-05-15T00:56:39.593Z,10.24
2023-05-15T00:59:07.912Z,10.24
2023-05-15T01:01:35.342Z,10.28
2023-05-15T01:04:03.335Z,10.26
2023-05-15T01:06:31.704Z,10.27
2023-05-15T01:09:06.945Z,10.27
2023-05-15T01:11:36.645Z,10.28
2023-05-15T01:14:08.976Z,10.25
2023-05-15T01:16:36.991Z,10.27
2023-05-15T01:19:05.500Z,10.26
2023-05-15T01:21:35.727Z,10.19
2023-05-15T01:24:53.236Z,10.23
2023-05-15T01:27:45.778Z,10.20
2023-05-15T01:30:23.719Z,10.19
2023-05-15T01:33:07.267Z,10.15
2023-05-15T01:35:44.202Z,10.09
2023-05-15T01:38:36.155Z,10.02
2023-05-15T01:41:14.923Z,9.99
2023-05-15T01:43:46.096Z,9.97
2023-05-15T01:46:20.552Z,9.86
2023-05-15T01:48:50.351Z,9.86
2023-05-15T01:51:19.376Z,9.81
2023-05-15T01:53:47.705Z,9.79
2023-05-15T01:56:16.593Z,9.74
2023-05-15T01:58:45.072Z,9.72
2023-05-15T02:01:13.552Z,9.66
2023-05-15T02:03:41.612Z,9.67
2023-05-15T02:06:09.741Z,9.67
2023-05-15T02:08:37.501Z,9.61
2023-05-15T02:11:05.284Z,9.59
2023-05-15T02:13:34.036Z,9.57
2023-05-15T02:16:01.130Z,9.54
2023-05-15T02:18:29.323Z,9.49
2023-05-15T02:20:56.312Z,9.47
2023-05-15T02:23:23.254Z,9.44
2023-05-15T02:26:11.754Z,9.38
2023-05-15T02:28:58.747Z,9.32
2023-05-15T02:31:37.098Z,9.30
2023-05-15T02:34:18.043Z,9.24
2023-05-15T02:36:48.903Z,9.21
2023-05-15T02:39:17.086Z,9.16
2023-05-15T02:41:46.422Z,9.11
2023-05-15T02:44:15.389Z,9.03
2023-05-15T02:46:42.616Z,9.00
2023-05-15T02:49:11.005Z,8.98
2023-05-15T02:51:38.013Z,8.96
2023-05-15T02:54:06.773Z,8.92
2023-05-15T02:56:33.859Z,8.90
2023-05-15T02:59:00.867Z,8.87
2023-05-15T03:01:27.865Z,8.84
2023-05-15T03:03:54.878Z,8.82
2023-05-15T03:06:21.850Z,8.80
2023-05-15T03:08:48.744Z,8.75
2023-05-15T03:11:15.726Z,8.69
2023-05-15T03:13:42.761Z,8.68
2023-05-15T03:16:09.691Z,8.66
2023-05-15T03:18:36.728Z,8.62
2023-05-15T03:21:03.776Z,8.57
2023-05-15T03:23:32.338Z,8.54
2023-05-15T03:25:59.201Z,8.50
2023-05-15T03:28:26.202Z,8.43
2023-05-15T03:30:53.228Z,8.41
2023-05-15T03:33:20.216Z,8.35
2023-05-15T03:35:47.190Z,8.31
2023-05-15T03:38:14.114Z,8.29
2023-05-15T03:40:41.138Z,8.24
2023-05-15T03:43:08.053Z,8.22
2023-05-15T03:45:38.017Z,8.20
2023-05-15T03:48:05.855Z,8.17
2023-05-15T03:50:33.335Z,8.14
2023-05-15T03:53:00.620Z,8.11
2023-05-15T03:55:27.821Z,8.08
2023-05-15T03:57:55.356Z,8.07
2023-05-15T04:00:22.516Z,8.04
2023-05-15T04:02:49.964Z,7.99
2023-05-15T04:05:17.749Z,7.96
2023-05-15T04:07:44.681Z,7.92
2023-05-15T04:10:11.646Z,7.87
2023-05-15T04:12:38.683Z,7.84
2023-05-15T04:15:19.937Z,7.78
2023-05-15T04:17:48.588Z,7.80
2023-05-15T04:20:18.652Z,7.74
2023-05-15T04:22:46.721Z,7.75
2023-05-15T04:25:18.293Z,7.74
2023-05-15T04:27:45.467Z,7.77
2023-05-15T04:30:13.713Z,7.79
2023-05-15T04:32:41.317Z,7.81
2023-05-15T04:35:10.795Z,7.83
2023-05-15T04:37:39.489Z,7.84
2023-05-15T04:40:08.385Z,7.90
2023-05-15T04:42:38.399Z,7.95
2023-05-15T04:45:07.366Z,7.97
2023-05-15T04:47:34.570Z,8.02
2023-05-15T04:50:01.539Z,8.00
2023-05-15T04:52:28.461Z,8.12
2023-05-15T04:54:56.263Z,8.06
2023-05-15T04:57:23.630Z,8.14
2023-05-15T04:59:50.732Z,8.13
2023-05-15T05:02:22.809Z,8.12
2023-05-15T05:04:50.456Z,8.15
2023-05-15T05:07:17.821Z,8.16
2023-05-15T05:09:44.989Z,8.19
2023-05-15T05:12:12.004Z,8.19
2023-05-15T05:14:40.903Z,8.20
2023-05-15T05:17:08.078Z,8.30
2023-05-15T05:19:35.012Z,8.39
2023-05-15T05:22:05.784Z,8.55
2023-05-15T05:24:33.282Z,8.71
2023-05-15T05:27:00.535Z,8.94
2023-05-15T05:29:27.618Z,9.06
2023-05-15T05:31:54.703Z,9.18
2023-05-15T05:34:22.211Z,9.17
2023-05-15T05:36:49.837Z,9.09
2023-05-15T05:39:17.722Z,9.06
2023-05-15T05:41:45.024Z,8.92
2023-05-15T05:44:12.156Z,9.07
2023-05-15T05:46:39.124Z,9.38
2023-05-15T05:49:06.264Z,9.60
2023-05-15T05:51:36.876Z,9.72
2023-05-15T05:54:04.306Z,9.83
2023-05-15T05:56:31.634Z,9.72
2023-05-15T05:58:59.856Z,10.02
2023-05-15T06:01:27.899Z,10.31
2023-05-15T06:03:56.192Z,10.61
2023-05-15T06:06:23.351Z,10.75
2023-05-15T06:08:50.298Z,11.10
2023-05-15T06:11:23.791Z,11.43
2023-05-15T06:13:52.957Z,11.81
2023-05-15T06:16:20.011Z,12.21
2023-05-15T06:18:47.148Z,12.47
2023-05-15T06:21:14.107Z,12.70
2023-05-15T06:23:41.158Z,12.94
2023-05-15T06:26:08.197Z,13.16
2023-05-15T06:28:35.226Z,13.44
2023-05-15T06:31:02.315Z,13.68
2023-05-15T06:33:29.364Z,13.97
2023-05-15T06:35:56.559Z,13.99
2023-05-15T06:38:23.582Z,14.26
2023-05-15T06:40:50.506Z,14.21
2023-05-15T06:43:17.423Z,13.98
2023-05-15T06:45:44.339Z,13.70
2023-05-15T06:48:11.256Z,13.36
2023-05-15T06:50:38.187Z,12.99
2023-05-15T06:53:05.130Z,12.65
2023-05-15T06:55:34.363Z,12.51
2023-05-15T06:58:01.412Z,12.39
2023-05-15T07:00:28.356Z,12.37
2023-05-15T07:02:55.316Z,12.40
2023-05-15T07:05:22.357Z,12.50
2023-05-15T07:07:49.351Z,12.59
2023-05-15T07:10:16.326Z,12.92
2023-05-15T07:12:43.283Z,12.96
2023-05-15T07:15:10.917Z,13.11
2023-05-15T07:17:37.958Z,13.13
2023-05-15T07:20:06.426Z,13.10
2023-05-15T07:22:36.402Z,13.10
2023-05-15T07:25:06.796Z,12.94
2023-05-15T07:27:33.764Z,12.77
2023-05-15T07:30:04.194Z,12.65
2023-05-15T07:32:31.439Z,12.67
2023-05-15T07:34:58.368Z,12.56
2023-05-15T07:37:25.893Z,12.69
2023-05-15T07:39:53.037Z,12.71
2023-05-15T07:42:19.998Z,12.55
2023-05-15T07:44:49.396Z,12.56
2023-05-15T07:47:17.109Z,12.70
2023-05-15T07:49:44.075Z,12.65
2023-05-15T07:52:11.133Z,12.55
2023-05-15T07:54:39.743Z,12.35
2023-05-15T07:57:06.673Z,12.30
2023-05-15T07:59:33.765Z,12.56
2023-05-15T08:02:00.755Z,12.89
2023-05-15T08:04:27.903Z,13.05
2023-05-15T08:06:54.981Z,12.96
2023-05-15T08:09:21.921Z,12.73
2023-05-15T08:11:48.833Z,12.58
2023-05-15T08:14:15.848Z,12.21
2023-05-15T08:16:42.775Z,11.95
2023-05-15T08:19:10.558Z,12.08
2023-05-15T08:21:37.542Z,12.26
2023-05-15T08:24:04.843Z,12.51
2023-05-15T08:26:31.916Z,12.77
2023-05-15T08:28:58.893Z,13.04
2023-05-15T08:31:25.966Z,13.05
2023-05-15T08:33:52.898Z,13.10
2023-05-15T08:36:20.226Z,12.90
2023-05-15T08:38:47.214Z,12.78
2023-05-15T08:41:53.017Z,12.90
2023-05-15T08:44:21.816Z,13.11
2023-05-15T08:46:49.577Z,13.31
2023-05-15T08:49:57.227Z,13.61
2023-05-15T08:52:25.980Z,13.84
2023-05-15T08:54:53.513Z,14.00
2023-05-15T08:57:20.712Z,14.28
2023-05-15T08:59:48.953Z,14.19
2023-05-15T09:02:16.470Z,14.00
2023-05-15T09:04:43.422Z,14.02
2023-05-15T09:07:12.114Z,14.11
2023-05-15T09:09:39.953Z,14.18
2023-05-15T09:12:11.679Z,14.06
2023-05-15T09:14:38.788Z,14.01
2023-05-15T09:17:06.433Z,14.09
2023-05-15T09:19:38.709Z,14.20
2023-05-15T09:22:23.594Z,14.41
2023-05-15T09:24:53.469Z,14.54
2023-05-15T09:27:20.916Z,14.72
2023-05-15T09:29:47.959Z,14.71
2023-05-15T09:32:15.973Z,14.58
2023-05-15T09:34:45.614Z,14.27
2023-05-15T09:37:33.074Z,13.98
2023-05-15T09:40:11.497Z,13.82
2023-05-15T09:42:39.499Z,13.96
2023-05-15T09:45:07.385Z,14.10
2023-05-15T09:47:34.740Z,14.27
2023-05-15T09:50:02.286Z,14.43
2023-05-15T09:52:30.383Z,14.58
2023-05-15T09:54:58.003Z,14.68
2023-05-15T09:57:25.060Z,14.66
2023-05-15T09:59:52.066Z,14.73
2023-05-15T10:02:35.504Z,14.85
2023-05-15T10:05:02.605Z,14.92
2023-05-15T10:07:34.104Z,14.73
2023-05-15T10:10:04.051Z,14.79
2023-05-15T10:12:32.559Z,14.65
2023-05-15T10:15:01.290Z,14.54
2023-05-15T10:17:29.675Z,14.59
2023-05-15T10:20:00.997Z,14.66
2023-05-15T10:22:37.926Z,14.64
2023-05-15T10:25:16.681Z,14.71
2023-05-15T10:27:44.057Z,14.55
2023-05-15T10:30:12.399Z,14.47
2023-05-15T10:32:42.178Z,14.58
2023-05-15T10:35:12.095Z,14.61
2023-05-15T10:37:42.185Z,14.88
2023-05-15T10:40:11.022Z,14.96
2023-05-15T10:42:39.050Z,15.09
2023-05-15T10:45:09.285Z,15.04
2023-05-15T10:47:39.092Z,14.93
2023-05-15T10:50:07.602Z,14.95
2023-05-15T10:52:37.377Z,15.09
2023-05-15T10:55:15.359Z,15.25
2023-05-15T10:57:43.063Z,15.43
2023-05-15T11:00:31.731Z,15.49
2023-05-15T11:02:59.454Z,15.60
2023-05-15T11:05:27.284Z,15.60
2023-05-15T11:08:18.026Z,15.38
2023-05-15T11:10:45.413Z,15.46
2023-05-15T11:13:12.352Z,15.32
2023-05-15T11:15:44.914Z,15.25
2023-05-15T11:18:12.449Z,15.37
2023-05-15T11:21:04.078Z,15.50
2023-05-15T11:23:40.406Z,15.69
2023-05-15T11:26:07.410Z,15.86
2023-05-15T11:28:43.870Z,15.97
2023-05-15T11:31:11.049Z,16.08
2023-05-15T11:33:40.847Z,16.06
2023-05-15T11:36:08.692Z,15.94
2023-05-15T11:38:40.385Z,15.79
2023-05-15T11:41:19.785Z,15.79
2023-05-15T11:43:47.180Z,15.92
2023-05-15T11:46:15.444Z,15.95
2023-05-15T11:48:50.165Z,15.87
2023-05-15T11:51:21.872Z,15.91
2023-05-15T11:53:54.828Z,16.13
2023-05-15T11:56:30.899Z,16.25
2023-05-15T11:59:00.666Z,16.25
2023-05-15T12:01:29.632Z,16.05
2023-05-15T12:03:56.865Z,15.96
2023-05-15T12:06:26.005Z,15.96
2023-05-15T12:08:54.007Z,15.90
2023-05-15T12:11:24.898Z,15.80
2023-05-15T12:13:56.691Z,15.62
2023-05-15T12:16:26.613Z,15.72
2023-05-15T12:18:54.274Z,15.90
2023-05-15T12:21:21.258Z,15.85
2023-05-15T12:26:27.953Z,16.00
2023-05-15T12:28:56.065Z,15.92
2023-05-15T12:31:23.378Z,15.81
2023-05-15T12:33:50.602Z,15.63
2023-05-15T12:36:21.692Z,15.53
2023-05-15T12:38:49.347Z,15.57
2023-05-15T12:41:16.366Z,15.77
2023-05-15T12:43:43.378Z,16.03
2023-05-15T12:46:10.665Z,16.15
2023-05-15T12:48:37.960Z,15.91
2023-05-15T12:51:09.313Z,15.70
2023-05-15T12:53:40.204Z,15.54
2023-05-15T12:56:08.558Z,15.53
2023-05-15T12:58:36.120Z,15.60
2023-05-15T13:01:03.954Z,15.78
2023-05-15T13:03:32.124Z,15.97
2023-05-15T13:05:59.614Z,16.20
2023-05-15T13:08:45.867Z,16.22
2023-05-15T13:11:14.776Z,16.47
2023-05-15T13:13:47.108Z,16.42
2023-05-15T13:16:22.733Z,16.41
2023-05-15T13:19:09.914Z,16.43
2023-05-15T13:21:46.321Z,16.41
2023-05-15T13:24:13.401Z,16.30
2023-05-15T13:26:40.589Z,16.24
2023-05-15T13:29:07.520Z,16.30
2023-05-15T13:31:34.530Z,16.41
2023-05-15T13:34:01.631Z,16.31
2023-05-15T13:36:28.698Z,16.23
2023-05-15T13:38:56.288Z,16.05
2023-05-15T13:41:23.336Z,16.19
2023-05-15T13:43:51.740Z,16.28
2023-05-15T13:46:18.804Z,16.35
2023-05-15T13:48:45.816Z,16.30
2023-05-15T13:51:12.737Z,16.22
2023-05-15T13:53:39.816Z,16.39
2023-05-15T13:56:06.996Z,16.40
2023-05-15T13:58:34.038Z,16.14
2023-05-15T14:01:07.308Z,16.12
2023-05-15T14:03:34.843Z,16.26
2023-05-15T14:06:01.889Z,16.32
2023-05-15T14:08:28.855Z,16.26
2023-05-15T14:10:56.284Z,16.45
2023-05-15T14:13:23.879Z,16.61
2023-05-15T14:15:51.324Z,16.63
2023-05-15T14:18:18.245Z,16.62
2023-05-15T14:20:45.180Z,16.55
2023-05-15T14:23:12.108Z,16.47
2023-05-15T14:25:39.043Z,16.46
2023-05-15T14:28:05.981Z,16.57
2023-05-15T14:30:32.942Z,16.67
2023-05-15T14:32:59.841Z,16.77
2023-05-15T14:35:26.750Z,16.62
2023-05-15T14:37:53.694Z,16.66
2023-05-15T14:40:20.671Z,16.56
2023-05-15T14:42:47.625Z,16.43
2023-05-15T14:45:14.643Z,16.39
2023-05-15T14:47:41.639Z,16.30
2023-05-15T14:50:08.691Z,16.07
2023-05-15T14:52:35.814Z,16.24
2023-05-15T14:57:32.946Z,16.12
2023-05-15T14:59:59.934Z,16.11
2023-05-15T15:02:26.870Z,16.05
2023-05-15T15:04:53.940Z,16.17
2023-05-15T15:07:20.925Z,16.20
2023-05-15T15:09:47.892Z,16.27
2023-05-15T15:12:14.827Z,16.20
2023-05-15T15:14:42.001Z,16.21
2023-05-15T15:17:08.931Z,16.28
2023-05-15T15:19:35.920Z,16.29
2023-05-15T15:22:02.909Z,16.15
2023-05-15T15:24:30.038Z,16.37
2023-05-15T15:26:56.951Z,16.39
2023-05-15T15:29:23.987Z,16.39
2023-05-15T15:31:51.055Z,16.45
2023-05-15T15:34:18.050Z,16.39
2023-05-15T15:36:45.431Z,16.54
2023-05-15T15:39:13.281Z,16.45
2023-05-15T15:41:40.229Z,16.39
2023-05-15T15:44:07.315Z,16.37
2023-05-15T15:46:34.266Z,16.32
2023-05-15T15:49:01.714Z,16.23
2023-05-15T15:51:29.696Z,16.29
2023-05-15T15:53:56.709Z,16.21
2023-05-15T15:56:23.717Z,16.12
2023-05-15T15:58:50.705Z,16.12
2023-05-15T16:01:17.854Z,16.17
2023-05-15T16:03:44.904Z,16.10
2023-05-15T16:06:14.892Z,16.12
2023-05-15T16:08:41.868Z,16.13
2023-05-15T16:11:08.818Z,16.08
2023-05-15T16:13:35.892Z,16.00
2023-05-15T16:16:03.012Z,15.93
2023-05-15T16:18:29.983Z,16.02
2023-05-15T16:20:57.377Z,16.10
2023-05-15T16:23:24.811Z,16.15
2023-05-15T16:25:51.897Z,16.08
2023-05-15T16:28:18.827Z,16.03
2023-05-15T16:30:49.807Z,16.01
2023-05-15T16:33:18.559Z,16.01
2023-05-15T16:35:46.496Z,16.02
2023-05-15T16:38:14.130Z,15.98
2023-05-15T16:40:41.733Z,16.04
2023-05-15T16:43:08.893Z,16.02
2023-05-15T16:45:35.983Z,16.04
2023-05-15T16:48:03.235Z,16.08
2023-05-15T16:50:32.675Z,16.03
2023-05-15T16:52:59.727Z,16.03
2023-05-15T16:55:27.052Z,16.07
2023-05-15T16:57:54.141Z,15.99
2023-05-15T17:00:30.158Z,16.14
2023-05-15T17:02:57.127Z,16.09
2023-05-15T17:05:24.138Z,16.05
2023-05-15T17:07:51.076Z,15.92
2023-05-15T17:10:17.993Z,15.94
2023-05-15T17:12:45.361Z,15.86
2023-05-15T17:15:13.425Z,15.94
2023-05-15T17:17:40.426Z,15.91
2023-05-15T17:20:08.407Z,15.74
2023-05-15T17:22:35.663Z,15.74
2023-05-15T17:25:02.775Z,15.75
2023-05-15T17:27:30.239Z,15.70
2023-05-15T17:29:57.444Z,15.76
2023-05-15T17:32:24.573Z,15.59
2023-05-15T17:34:51.700Z,15.51
2023-05-15T17:37:18.744Z,15.46
2023-05-15T17:39:45.647Z,15.26
2023-05-15T17:42:12.719Z,15.37
2023-05-15T17:44:39.794Z,15.23
2023-05-15T17:47:07.149Z,15.25
2023-05-15T17:49:34.726Z,15.10
2023-05-15T17:52:01.987Z,15.12
2023-05-15T17:54:28.947Z,15.02
2023-05-15T17:56:56.113Z,14.97
2023-05-15T17:59:23.284Z,14.84
2023-05-15T18:01:50.217Z,14.87
2023-05-15T18:04:17.265Z,14.85
2023-05-15T18:06:44.295Z,14.80
2023-05-15T18:09:12.067Z,14.79
2023-05-15T18:11:38.975Z,14.75
2023-05-15T18:14:05.916Z,14.69
2023-05-15T18:16:33.026Z,14.50
2023-05-15T18:19:00.326Z,14.42
2023-05-15T18:21:27.484Z,14.35
2023-05-15T18:23:54.454Z,14.28
2023-05-15T18:26:21.818Z,14.13
2023-05-15T18:28:49.780Z,14.23
2023-05-15T18:31:16.833Z,14.15
2023-05-15T18:33:45.249Z,14.04
2023-05-15T18:36:12.207Z,13.99
2023-05-15T18:38:39.206Z,13.99
2023-05-15T18:41:06.357Z,13.90
2023-05-15T18:43:33.310Z,13.78
2023-05-15T18:46:00.316Z,13.70
2023-05-15T18:48:27.263Z,13.56
2023-05-15T18:50:54.525Z,13.54
2023-05-15T18:53:21.918Z,13.49
2023-05-15T18:55:48.977Z,13.42
2023-05-15T18:58:16.074Z,13.31
2023-05-15T19:00:43.834Z,13.32
2023-05-15T19:03:11.767Z,13.24
2023-05-15T19:05:39.641Z,13.25
2023-05-15T19:08:08.667Z,13.06
2023-05-15T19:10:35.921Z,13.08
2023-05-15T19:13:03.719Z,13.03
2023-05-15T19:15:31.519Z,12.90
2023-05-15T19:17:58.821Z,12.80
2023-05-15T19:20:27.266Z,12.77
2023-05-15T19:22:56.055Z,12.65
2023-05-15T19:25:24.136Z,12.55
2023-05-15T19:27:52.934Z,12.53
2023-05-15T19:30:20.710Z,12.47
2023-05-15T19:32:48.156Z,12.45
2023-05-15T19:35:15.627Z,12.38
2023-05-15T19:37:42.757Z,12.32
2023-05-15T19:40:10.215Z,12.33
2023-05-15T19:42:37.411Z,12.12
2023-05-15T19:45:05.170Z,12.16
2023-05-15T19:47:32.128Z,12.12
2023-05-15T19:49:59.053Z,11.99
2023-05-15T19:52:25.990Z,11.99
2023-05-15T19:54:52.944Z,11.94
2023-05-15T19:57:19.891Z,11.83
2023-05-15T19:59:46.978Z,11.79
2023-05-15T20:02:13.934Z,11.75
2023-05-15T20:04:40.942Z,11.65
2023-05-15T20:07:08.005Z,11.52
2023-05-15T20:09:35.794Z,11.56
2023-05-15T20:12:06.223Z,11.50
2023-05-15T20:14:34.458Z,11.36
2023-05-15T20:17:01.417Z,11.38
2023-05-15T20:19:33.354Z,11.33
2023-05-15T20:22:00.298Z,11.24
2023-05-15T20:24:27.240Z,11.20
2023-05-15T20:26:54.193Z,11.01
2023-05-15T20:29:21.164Z,11.00
2023-05-15T20:31:48.142Z,10.99
2023-05-15T20:34:16.254Z,10.89
2023-05-15T20:36:43.893Z,10.84
2023-05-15T20:39:10.871Z,10.79
2023-05-15T20:41:37.974Z,10.76
2023-05-15T20:44:04.969Z,10.70
2023-05-15T20:46:32.151Z,10.66
2023-05-15T20:48:59.189Z,10.61
2023-05-15T20:51:26.289Z,10.53
2023-05-15T20:53:53.240Z,10.55
2023-05-15T20:56:20.504Z,10.49
2023-05-15T20:58:47.590Z,10.40
2023-05-15T21:01:15.819Z,10.36
2023-05-15T21:03:43.564Z,10.31
2023-05-15T21:06:10.612Z,10.26
2023-05-15T21:08:37.580Z,10.19
2023-05-15T21:11:04.544Z,10.13
2023-05-15T21:13:31.462Z,10.11
2023-05-15T21:15:58.369Z,10.05
2023-05-15T21:18:25.326Z,10.04
2023-05-15T21:20:54.625Z,9.99
2023-05-15T21:23:23.677Z,10.00
2023-05-15T21:25:53.284Z,9.93
2023-05-15T21:28:24.066Z,9.93
2023-05-15T21:30:52.988Z,9.88
2023-05-15T21:33:21.850Z,9.85
2023-05-15T21:35:49.394Z,9.84
2023-05-15T21:38:17.621Z,9.80
2023-05-15T21:40:46.776Z,9.77
2023-05-15T21:43:14.380Z,9.72
2023-05-15T21:45:43.346Z,9.71
2023-05-15T21:48:12.431Z,9.64
2023-05-15T21:50:41.767Z,9.56
2023-05-15T21:53:10.755Z,9.52
2023-05-15T21:55:38.762Z,9.53
2023-05-15T21:58:08.417Z,9.46
2023-05-15T22:00:37.752Z,9.43
2023-05-15T22:03:09.117Z,9.38
2023-05-15T22:05:38.708Z,9.35
2023-05-15T22:08:07.849Z,9.30
2023-05-15T22:10:37.278Z,9.22
2023-05-15T22:13:06.788Z,9.27
2023-05-15T22:15:36.076Z,9.21
2023-05-15T22:18:09.705Z,9.13
2023-05-15T22:20:36.662Z,9.14
2023-05-15T22:23:03.637Z,9.09
2023-05-15T22:25:31.253Z,9.08
2023-05-15T22:27:58.202Z,9.04
2023-05-15T22:30:25.193Z,9.05
2023-05-15T22:32:52.401Z,9.01
2023-05-15T22:35:19.593Z,8.94
2023-05-15T22:37:46.933Z,8.95
2023-05-15T22:40:14.015Z,8.90
2023-05-15T22:42:41.268Z,8.91
2023-05-15T22:45:09.494Z,8.87
2023-05-15T22:47:36.586Z,8.85
2023-05-15T22:50:03.786Z,8.82
2023-05-15T22:52:30.901Z,8.80
2023-05-15T22:54:58.101Z,8.76
2023-05-15T22:57:27.076Z,8.72
2023-05-15T22:59:55.278Z,8.70
2023-05-15T23:02:22.220Z,8.63
2023-05-15T23:04:49.169Z,8.61
2023-05-15T23:07:17.482Z,8.57
2023-05-15T23:09:44.628Z,8.53
2023-05-15T23:12:11.570Z,8.48
2023-05-15T23:14:38.492Z,8.46
2023-05-15T23:17:05.748Z,8.46
2023-05-15T23:19:32.722Z,8.39
2023-05-15T23:21:59.738Z,8.37
2023-05-15T23:24:26.686Z,8.27
2023-05-15T23:26:53.681Z,8.28
2023-05-15T23:29:20.637Z,8.22
2023-05-15T23:31:47.704Z,8.20
2023-05-15T23:34:14.749Z,8.18
2023-05-15T23:36:41.816Z,8.10
2023-05-15T23:39:09.584Z,8.06
2023-05-15T23:41:36.709Z,8.03
2023-05-15T23:44:03.865Z,7.99
2023-05-15T23:46:31.002Z,7.92
2023-05-15T23:48:57.916Z,7.90
2023-05-15T23:51:25.257Z,7.87
2023-05-15T23:53:52.201Z,7.82
2023-05-15T23:56:19.127Z,7.74
2023-05-15T23:58:46.050Z,7.72
